createdAt,value
2023-07-16T07:28:13.338Z,38.60
2023-07-16T07:30:42.107Z,39.40
2023-07-16T07:33:10.809Z,40.50
2023-07-16T07:35:39.614Z,39.30
2023-07-16T08:04:51.721Z,28.30
2023-07-16T08:07:28.722Z,27.40
2023-07-16T08:10:05.620Z,30.80
2023-07-16T08:12:38.825Z,31.10
2023-07-16T08:15:15.628Z,30.40
2023-07-16T08:17:54.675Z,29.70
2023-07-16T08:23:28.876Z,27.60
2023-07-16T08:26:03.836Z,27.90
2023-07-16T08:28:36.871Z,26.10
2023-07-16T08:31:05.696Z,25.90
2023-07-16T08:33:36.494Z,24.10
2023-07-16T08:36:20.874Z,23.90
2023-07-16T08:38:52.853Z,24.30
2023-07-16T08:44:26.152Z,25.30
2023-07-16T08:50:52.807Z,24.70
2023-07-16T08:53:34.129Z,23.20
2023-07-16T09:02:13.952Z,22.40
2023-07-16T09:04:43.580Z,20.70
2023-07-16T09:07:18.053Z,20.50
2023-07-16T09:10:08.053Z,19.30
2023-07-16T09:12:37.563Z,16.40
2023-07-16T09:15:17.383Z,16.10
2023-07-16T09:17:55.007Z,14.90
2023-07-16T09:20:26.010Z,13.50
2023-07-16T09:23:14.388Z,12.40
2023-07-16T09:25:59.789Z,12.80
2023-07-16T09:28:39.915Z,13.40
2023-07-16T09:34:13.356Z,13.20
2023-07-16T09:36:46.846Z,10.60
2023-07-16T09:39:27.446Z,11.00
2023-07-16T09:42:07.950Z,10.90
2023-07-16T09:44:59.914Z,10.60
2023-07-16T09:47:32.922Z,11.90
2023-07-16T09:50:04.057Z,12.80
2023-07-16T09:52:35.729Z,12.90
2023-07-16T09:55:08.227Z,12.80
2023-07-16T09:57:45.135Z,13.30
2023-07-16T10:00:23.062Z,11.90
2023-07-16T10:06:11.342Z,11.40
2023-07-16T10:08:44.613Z,11.40
2023-07-16T10:11:20.313Z,11.20
2023-07-16T10:13:53.480Z,8.30
2023-07-16T10:16:28.875Z,7.50
2023-07-16T10:19:02.123Z,7.20
2023-07-16T10:21:40.633Z,6.70
2023-07-16T10:24:36.878Z,6.10
2023-07-16T10:27:07.392Z,6.40
2023-07-16T10:29:38.463Z,6.70
2023-07-16T10:32:17.095Z,7.00
2023-07-16T10:34:47.714Z,6.50
2023-07-16T10:37:17.302Z,6.10
2023-07-16T10:39:51.184Z,5.60
2023-07-16T10:42:22.635Z,5.80
2023-07-16T10:44:58.325Z,5.60
2023-07-16T10:47:39.126Z,6.40
2023-07-16T10:50:13.425Z,5.90
2023-07-16T10:52:44.817Z,7.70
2023-07-16T10:55:21.079Z,6.40
2023-07-16T10:57:57.798Z,6.90
2023-07-16T11:00:30.414Z,5.60
2023-07-16T11:03:07.291Z,6.70
2023-07-16T11:05:39.421Z,3.90
2023-07-16T11:08:10.042Z,3.30
2023-07-16T11:10:50.215Z,2.80
2023-07-16T11:13:19.109Z,3.80
2023-07-16T11:15:49.604Z,3.80
2023-07-16T11:18:18.559Z,4.50
2023-07-16T11:20:47.353Z,5.00
2023-07-16T11:23:17.130Z,5.40
2023-07-16T11:25:49.808Z,4.20
2023-07-16T11:28:18.642Z,4.60
2023-07-16T11:30:51.081Z,4.50
2023-07-16T11:33:20.799Z,4.10
2023-07-16T11:35:55.083Z,3.90
2023-07-16T11:38:24.643Z,4.30
2023-07-16T11:40:53.600Z,3.40
2023-07-16T11:43:22.737Z,4.30
2023-07-16T11:45:53.112Z,5.50
2023-07-16T11:48:21.802Z,4.30
2023-07-16T11:50:50.844Z,4.20
2023-07-16T11:53:19.973Z,3.50
2023-07-16T11:55:50.806Z,2.60
2023-07-16T11:58:20.750Z,2.40
2023-07-16T12:00:55.589Z,2.60
2023-07-16T12:03:26.525Z,3.40
2023-07-16T12:05:57.773Z,3.00
2023-07-16T12:08:31.298Z,3.40
2023-07-16T12:11:03.956Z,2.70
2023-07-16T12:13:35.014Z,2.70
2023-07-16T12:16:09.468Z,1.00
2023-07-16T12:18:38.343Z,1.00
2023-07-16T12:21:07.856Z,1.00
2023-07-16T12:23:37.259Z,1.00
2023-07-16T12:26:09.939Z,1.00
2023-07-16T12:28:54.284Z,1.00
2023-07-16T12:31:26.694Z,1.00
2023-07-16T12:33:57.074Z,1.00
2023-07-16T12:36:26.857Z,1.00
2023-07-16T12:38:56.916Z,1.00
2023-07-16T12:41:28.526Z,1.00
2023-07-16T12:43:57.633Z,1.00
2023-07-16T12:46:31.560Z,1.00
2023-07-16T13:39:34.272Z,2.30
2023-07-16T13:45:35.430Z,1.00
2023-07-16T13:48:16.028Z,1.00
2023-07-16T13:50:47.105Z,1.00
2023-07-16T13:53:36.378Z,1.00
2023-07-16T13:56:21.712Z,1.00
2023-07-16T14:13:00.418Z,1.00
2023-07-16T14:43:22.358Z,1.00
2023-07-16T14:58:39.026Z,2.00
2023-07-16T15:01:09.703Z,1.20
2023-07-16T15:03:38.977Z,1.00
2023-07-16T15:06:11.456Z,1.00
2023-07-16T15:08:40.218Z,1.00
2023-07-16T15:11:09.802Z,1.00
2023-07-16T15:13:58.643Z,1.00
2023-07-16T15:16:36.872Z,1.00
2023-07-16T15:22:23.201Z,1.00
2023-07-16T15:25:14.957Z,1.00
2023-07-16T15:28:39.981Z,1.00
2023-07-16T15:31:18.869Z,1.00
2023-07-16T15:33:51.966Z,1.00
2023-07-16T15:36:24.608Z,1.00
2023-07-16T15:38:54.373Z,1.00
2023-07-16T15:48:31.655Z,1.00
2023-07-16T15:51:05.983Z,1.00
2023-07-16T15:53:34.857Z,1.00
2023-07-16T15:56:03.940Z,1.00
2023-07-16T15:58:34.843Z,1.00
2023-07-16T16:01:12.345Z,1.00
2023-07-16T16:03:46.547Z,1.00
2023-07-16T16:06:19.343Z,1.00
2023-07-16T16:08:49.425Z,1.00
2023-07-16T16:11:20.676Z,1.00
2023-07-16T16:13:50.240Z,1.00
2023-07-16T16:16:22.948Z,1.00
2023-07-16T16:18:54.384Z,1.00
2023-07-16T16:21:24.605Z,1.00
2023-07-16T16:23:55.371Z,1.00
2023-07-16T16:26:27.588Z,1.00
2023-07-16T16:28:57.362Z,1.00
2023-07-16T16:31:27.482Z,1.00
2023-07-16T16:33:58.902Z,1.00
2023-07-16T16:36:29.923Z,1.00
2023-07-16T16:38:58.786Z,1.00
2023-07-16T16:41:32.240Z,1.00
2023-07-16T16:44:02.896Z,1.00
2023-07-16T16:46:36.320Z,1.00
2023-07-16T16:49:07.212Z,1.00
2023-07-16T16:51:36.353Z,1.00
2023-07-16T16:54:06.728Z,1.00
2023-07-16T16:56:36.941Z,1.20
2023-07-16T16:59:07.085Z,1.00
2023-07-16T17:01:35.925Z,1.50
2023-07-16T17:04:09.231Z,1.00
2023-07-16T17:06:40.309Z,1.00
2023-07-16T17:09:12.773Z,1.00
2023-07-16T17:11:41.431Z,1.00
2023-07-16T17:14:10.352Z,1.00
2023-07-16T17:16:39.903Z,1.30
2023-07-16T17:19:10.682Z,1.60
2023-07-16T17:21:39.541Z,1.80
2023-07-16T17:24:08.678Z,1.70
2023-07-16T17:26:37.679Z,1.20
2023-07-16T17:29:08.453Z,2.40
2023-07-16T17:31:38.841Z,1.90
2023-07-16T17:34:15.276Z,2.30
2023-07-16T17:36:44.430Z,2.00
2023-07-16T17:39:20.644Z,2.70
2023-07-16T17:41:50.604Z,4.00
2023-07-16T17:44:22.533Z,3.80
2023-07-16T17:46:52.570Z,3.90
2023-07-16T17:49:26.394Z,4.60
2023-07-16T17:52:01.058Z,4.60
2023-07-16T17:54:31.869Z,4.10
2023-07-16T17:57:01.970Z,4.60
2023-07-16T17:59:34.171Z,3.90
2023-07-16T18:02:05.140Z,4.50
2023-07-16T18:04:37.012Z,5.60
2023-07-16T18:07:07.886Z,7.10
2023-07-16T18:09:37.227Z,7.40
2023-07-16T18:12:12.971Z,8.00
2023-07-16T18:14:43.070Z,7.80
2023-07-16T18:17:17.513Z,8.70
2023-07-16T18:19:53.364Z,8.20
2023-07-16T18:22:32.025Z,8.70
2023-07-16T18:25:03.194Z,9.50
2023-07-16T18:35:00.976Z,12.00
2023-07-16T18:37:35.197Z,13.00
2023-07-16T18:40:21.428Z,14.00
2023-07-16T18:43:36.067Z,14.40
2023-07-16T18:49:41.132Z,16.90
2023-07-16T18:52:10.698Z,17.80
2023-07-16T18:54:50.208Z,17.40
2023-07-16T18:57:32.462Z,17.60
2023-07-16T19:00:08.661Z,17.80
2023-07-16T19:02:38.509Z,17.90
2023-07-16T19:05:11.875Z,18.20
2023-07-16T19:07:41.761Z,18.60
2023-07-16T19:10:15.366Z,18.90
2023-07-16T19:12:50.160Z,19.40
2023-07-16T19:18:13.775Z,20.20
2023-07-16T19:20:53.033Z,20.10
2023-07-16T19:23:45.842Z,20.40
2023-07-16T19:26:20.842Z,21.40
2023-07-16T19:31:44.744Z,21.20
2023-07-16T19:34:17.318Z,22.10
2023-07-16T19:36:51.564Z,21.80
2023-07-16T19:39:22.387Z,22.50
2023-07-16T19:41:55.227Z,22.70
2023-07-16T19:44:38.758Z,23.00
2023-07-16T19:47:18.420Z,23.60
2023-07-16T19:49:47.459Z,24.10
2023-07-16T19:55:41.902Z,24.00
2023-07-16T19:58:16.696Z,24.10
2023-07-16T20:00:47.615Z,24.90
2023-07-16T20:03:19.812Z,25.20
2023-07-16T20:05:55.795Z,25.20
2023-07-16T20:08:29.148Z,25.70
2023-07-16T20:10:59.158Z,26.20
2023-07-16T20:13:29.852Z,26.10
2023-07-16T20:15:59.256Z,26.10
2023-07-16T20:18:30.778Z,26.10
2023-07-16T20:21:01.094Z,25.70
2023-07-16T20:23:31.402Z,25.60
2023-07-16T20:26:00.637Z,25.80
2023-07-16T20:28:33.732Z,25.70
2023-07-16T20:31:03.699Z,25.60
2023-07-16T20:33:34.574Z,26.30
2023-07-16T20:36:05.950Z,26.60
2023-07-16T20:38:35.183Z,26.40
2023-07-16T20:41:04.567Z,26.50
2023-07-16T20:43:35.595Z,26.80
2023-07-16T20:48:44.357Z,27.80
2023-07-16T20:51:16.791Z,28.40
2023-07-16T20:53:47.291Z,28.40
2023-07-16T20:56:18.493Z,29.10
2023-07-16T21:02:06.175Z,31.10
2023-07-16T21:08:16.587Z,32.00
2023-07-16T21:14:55.821Z,31.00
2023-07-16T21:23:48.321Z,31.30
2023-07-16T21:26:43.528Z,30.90
2023-07-16T21:49:49.612Z,31.30
2023-07-16T21:52:51.343Z,31.10
2023-07-16T21:55:53.367Z,31.10
2023-07-16T21:58:36.238Z,31.20
2023-07-16T22:04:42.723Z,31.90
2023-07-16T22:07:26.995Z,31.90
2023-07-16T22:11:10.342Z,32.00
2023-07-16T22:14:55.111Z,32.50
